sensor_id;sensor_type;location;lat;lon;timestamp;temperature;humidity
9486;DHT22;4781;48.776;9.200;2022-08-26T00:01:37;20.60;99.90
9486;DHT22;4781;48.776;9.200;2022-08-26T00:04:06;20.60;99.90
9486;DHT22;4781;48.776;9.200;2022-08-26T00:06:36;20.60;99.90
9486;DHT22;4781;48.776;9.200;2022-08-26T00:09:04;20.60;99.90
9486;DHT22;4781;48.776;9.200;2022-08-26T00:11:33;20.50;99.90
9486;DHT22;4781;48.776;9.200;2022-08-26T00:14:01;20.50;99.90
9486;DHT22;4781;48.776;9.200;2022-08-26T00:16:30;20.50;99.90
9486;DHT22;4781;48.776;9.200;2022-08-26T00:18:58;20.50;99.90
9486;DHT22;4781;48.776;9.200;2022-08-26T00:21:26;20.50;99.90
9486;DHT22;4781;48.776;9.200;2022-08-26T00:23:55;20.50;99.90
9486;DHT22;4781;48.776;9.200;2022-08-26T00:26:23;20.50;99.90
9486;DHT22;4781;48.776;9.200;2022-08-26T00:28:52;20.50;99.90
9486;DHT22;4781;48.776;9.200;2022-08-26T00:31:20;20.50;99.90
9486;DHT22;4781;48.776;9.200;2022-08-26T00:33:49;20.50;99.90
9486;DHT22;4781;48.776;9.200;2022-08-26T00:36:17;20.40;99.90
9486;DHT22;4781;48.776;9.200;2022-08-26T00:38:47;20.40;99.90
9486;DHT22;4781;48.776;9.200;2022-08-26T00:41:19;20.40;99.90
9486;DHT22;4781;48.776;9.200;2022-08-26T00:43:48;20.30;99.90
9486;DHT22;4781;48.776;9.200;2022-08-26T00:46:26;20.20;99.90
9486;DHT22;4781;48.776;9.200;2022-08-26T00:49:06;20.20;99.90
9486;DHT22;4781;48.776;9.200;2022-08-26T00:51:39;20.20;99.90
9486;DHT22;4781;48.776;9.200;2022-08-26T00:54:16;20.10;99.90
9486;DHT22;4781;48.776;9.200;2022-08-26T00:56:59;20.10;99.90
9486;DHT22;4781;48.776;9.200;2022-08-26T00:59:30;20.10;99.90
9486;DHT22;4781;48.776;9.200;2022-08-26T01:02:00;20.10;99.90
9486;DHT22;4781;48.776;9.200;2022-08-26T01:04:31;20.10;99.90
9486;DHT22;4781;48.776;9.200;2022-08-26T01:07:01;20.00;99.90
9486;DHT22;4781;48.776;9.200;2022-08-26T01:09:30;20.00;99.90
9486;DHT22;4781;48.776;9.200;2022-08-26T01:12:01;20.00;99.90
9486;DHT22;4781;48.776;9.200;2022-08-26T01:14:33;20.00;99.90
9486;DHT22;4781;48.776;9.200;2022-08-26T01:17:03;20.00;99.90
9486;DHT22;4781;48.776;9.200;2022-08-26T01:19:45;19.90;99.90
9486;DHT22;4781;48.776;9.200;2022-08-26T01:22:23;19.90;99.90
9486;DHT22;4781;48.776;9.200;2022-08-26T01:24:48;19.90;99.90
9486;DHT22;4781;48.776;9.200;2022-08-26T01:27:18;19.90;99.90
9486;DHT22;4781;48.776;9.200;2022-08-26T01:29:49;19.90;99.90
9486;DHT22;4781;48.776;9.200;2022-08-26T01:32:20;19.80;99.90
9486;DHT22;4781;48.776;9.200;2022-08-26T01:34:50;19.80;99.90
9486;DHT22;4781;48.776;9.200;2022-08-26T01:37:25;19.80;99.90
9486;DHT22;4781;48.776;9.200;2022-08-26T01:39:55;19.80;99.90
9486;DHT22;4781;48.776;9.200;2022-08-26T01:42:24;19.90;99.90
9486;DHT22;4781;48.776;9.200;2022-08-26T01:45:11;19.80;99.90
9486;DHT22;4781;48.776;9.200;2022-08-26T01:47:42;19.80;99.90
9486;DHT22;4781;48.776;9.200;2022-08-26T01:50:16;19.70;99.90
9486;DHT22;4781;48.776;9.200;2022-08-26T01:52:49;19.70;99.90
9486;DHT22;4781;48.776;9.200;2022-08-26T01:55:18;19.70;99.90
9486;DHT22;4781;48.776;9.200;2022-08-26T01:57:50;19.60;99.90
9486;DHT22;4781;48.776;9.200;2022-08-26T02:00:21;19.70;99.90
9486;DHT22;4781;48.776;9.200;2022-08-26T02:02:53;19.60;99.90
9486;DHT22;4781;48.776;9.200;2022-08-26T02:05:24;19.70;99.90
9486;DHT22;4781;48.776;9.200;2022-08-26T02:07:52;19.70;99.90
9486;DHT22;4781;48.776;9.200;2022-08-26T02:10:21;19.70;99.90
9486;DHT22;4781;48.776;9.200;2022-08-26T02:12:49;19.60;99.90
9486;DHT22;4781;48.776;9.200;2022-08-26T02:15:17;19.50;99.90
9486;DHT22;4781;48.776;9.200;2022-08-26T02:17:46;19.50;99.90
9486;DHT22;4781;48.776;9.200;2022-08-26T02:20:17;19.50;99.90
9486;DHT22;4781;48.776;9.200;2022-08-26T02:22:47;19.50;99.90
9486;DHT22;4781;48.776;9.200;2022-08-26T02:25:40;19.40;99.90
9486;DHT22;4781;48.776;9.200;2022-08-26T02:28:10;19.40;99.90
9486;DHT22;4781;48.776;9.200;2022-08-26T02:30:40;19.50;99.90
9486;DHT22;4781;48.776;9.200;2022-08-26T02:33:08;19.50;99.90
9486;DHT22;4781;48.776;9.200;2022-08-26T02:35:37;19.50;99.90
9486;DHT22;4781;48.776;9.200;2022-08-26T02:38:07;19.50;99.90
9486;DHT22;4781;48.776;9.200;2022-08-26T02:40:39;19.50;99.90
9486;DHT22;4781;48.776;9.200;2022-08-26T02:43:09;19.40;99.90
9486;DHT22;4781;48.776;9.200;2022-08-26T02:45:39;19.30;99.90
9486;DHT22;4781;48.776;9.200;2022-08-26T02:48:11;19.30;99.90
9486;DHT22;4781;48.776;9.200;2022-08-26T02:50:41;19.30;99.90
9486;DHT22;4781;48.776;9.200;2022-08-26T02:53:11;19.30;99.90
9486;DHT22;4781;48.776;9.200;2022-08-26T02:55:40;19.20;99.90
9486;DHT22;4781;48.776;9.200;2022-08-26T02:58:09;19.10;99.90
9486;DHT22;4781;48.776;9.200;2022-08-26T03:00:38;19.10;99.90
9486;DHT22;4781;48.776;9.200;2022-08-26T03:03:07;19.00;99.90
9486;DHT22;4781;48.776;9.200;2022-08-26T03:05:35;19.00;99.90
9486;DHT22;4781;48.776;9.200;2022-08-26T03:08:04;19.00;99.90
9486;DHT22;4781;48.776;9.200;2022-08-26T03:10:32;19.00;99.90
9486;DHT22;4781;48.776;9.200;2022-08-26T03:13:01;18.90;99.90
9486;DHT22;4781;48.776;9.200;2022-08-26T03:15:29;18.90;99.90
9486;DHT22;4781;48.776;9.200;2022-08-26T03:17:57;18.90;99.90
9486;DHT22;4781;48.776;9.200;2022-08-26T03:20:26;18.90;99.90
9486;DHT22;4781;48.776;9.200;2022-08-26T03:22:54;18.90;99.90
9486;DHT22;4781;48.776;9.200;2022-08-26T03:25:23;18.90;99.90
9486;DHT22;4781;48.776;9.200;2022-08-26T03:27:52;18.90;99.90
9486;DHT22;4781;48.776;9.200;2022-08-26T03:30:21;18.90;99.90
9486;DHT22;4781;48.776;9.200;2022-08-26T03:33:08;18.90;99.90
9486;DHT22;4781;48.776;9.200;2022-08-26T03:35:39;18.80;99.90
9486;DHT22;4781;48.776;9.200;2022-08-26T03:38:09;18.80;99.90
9486;DHT22;4781;48.776;9.200;2022-08-26T03:40:38;18.70;99.90
9486;DHT22;4781;48.776;9.200;2022-08-26T03:43:08;18.70;99.90
9486;DHT22;4781;48.776;9.200;2022-08-26T03:45:39;18.60;99.90
9486;DHT22;4781;48.776;9.200;2022-08-26T03:48:07;18.60;99.90
9486;DHT22;4781;48.776;9.200;2022-08-26T03:50:36;18.60;99.90
9486;DHT22;4781;48.776;9.200;2022-08-26T03:53:05;18.60;99.90
9486;DHT22;4781;48.776;9.200;2022-08-26T03:55:33;18.60;99.90
9486;DHT22;4781;48.776;9.200;2022-08-26T03:58:02;18.50;99.90
9486;DHT22;4781;48.776;9.200;2022-08-26T04:00:30;18.60;99.90
9486;DHT22;4781;48.776;9.200;2022-08-26T04:02:59;18.60;99.90
9486;DHT22;4781;48.776;9.200;2022-08-26T04:05:27;18.60;99.90
9486;DHT22;4781;48.776;9.200;2022-08-26T04:07:56;18.50;99.90
9486;DHT22;4781;48.776;9.200;2022-08-26T04:10:24;18.40;99.90
9486;DHT22;4781;48.776;9.200;2022-08-26T04:12:53;18.30;99.90
9486;DHT22;4781;48.776;9.200;2022-08-26T04:15:21;18.30;99.90
9486;DHT22;4781;48.776;9.200;2022-08-26T04:17:50;18.40;99.90
9486;DHT22;4781;48.776;9.200;2022-08-26T04:20:18;18.40;99.90
9486;DHT22;4781;48.776;9.200;2022-08-26T04:22:47;18.40;99.90
9486;DHT22;4781;48.776;9.200;2022-08-26T04:25:15;18.30;99.90
9486;DHT22;4781;48.776;9.200;2022-08-26T04:27:44;18.30;99.90
9486;DHT22;4781;48.776;9.200;2022-08-26T04:30:12;18.20;99.90
9486;DHT22;4781;48.776;9.200;2022-08-26T04:32:41;18.20;99.90
9486;DHT22;4781;48.776;9.200;2022-08-26T04:35:09;18.20;99.90
9486;DHT22;4781;48.776;9.200;2022-08-26T04:37:38;18.20;99.90
9486;DHT22;4781;48.776;9.200;2022-08-26T04:40:07;18.30;99.90
9486;DHT22;4781;48.776;9.200;2022-08-26T04:42:36;18.30;99.90
9486;DHT22;4781;48.776;9.200;2022-08-26T04:45:04;18.30;99.90
9486;DHT22;4781;48.776;9.200;2022-08-26T04:47:33;18.20;99.90
9486;DHT22;4781;48.776;9.200;2022-08-26T04:50:02;18.30;99.90
9486;DHT22;4781;48.776;9.200;2022-08-26T04:52:30;18.30;99.90
9486;DHT22;4781;48.776;9.200;2022-08-26T04:54:59;18.30;99.90
9486;DHT22;4781;48.776;9.200;2022-08-26T04:57:27;18.30;99.90
9486;DHT22;4781;48.776;9.200;2022-08-26T04:59:57;18.30;99.90
9486;DHT22;4781;48.776;9.200;2022-08-26T05:02:26;18.30;99.90
9486;DHT22;4781;48.776;9.200;2022-08-26T05:04:54;18.30;99.90
9486;DHT22;4781;48.776;9.200;2022-08-26T05:07:23;18.30;99.90
9486;DHT22;4781;48.776;9.200;2022-08-26T05:09:51;18.40;99.90
9486;DHT22;4781;48.776;9.200;2022-08-26T05:12:19;18.40;99.90
9486;DHT22;4781;48.776;9.200;2022-08-26T05:14:48;18.50;99.90
9486;DHT22;4781;48.776;9.200;2022-08-26T05:17:17;18.50;99.90
9486;DHT22;4781;48.776;9.200;2022-08-26T05:19:46;18.60;99.90
9486;DHT22;4781;48.776;9.200;2022-08-26T05:22:16;18.60;99.90
9486;DHT22;4781;48.776;9.200;2022-08-26T05:24:45;18.70;99.90
9486;DHT22;4781;48.776;9.200;2022-08-26T05:27:14;18.70;99.90
9486;DHT22;4781;48.776;9.200;2022-08-26T05:29:43;18.80;99.90
9486;DHT22;4781;48.776;9.200;2022-08-26T05:32:11;18.80;99.90
9486;DHT22;4781;48.776;9.200;2022-08-26T05:34:40;18.80;99.90
9486;DHT22;4781;48.776;9.200;2022-08-26T05:37:08;18.80;99.90
9486;DHT22;4781;48.776;9.200;2022-08-26T05:39:37;18.90;99.90
9486;DHT22;4781;48.776;9.200;2022-08-26T05:42:05;18.90;99.90
9486;DHT22;4781;48.776;9.200;2022-08-26T05:44:33;18.90;99.90
9486;DHT22;4781;48.776;9.200;2022-08-26T05:47:03;18.90;99.90
9486;DHT22;4781;48.776;9.200;2022-08-26T05:49:32;18.90;99.90
9486;DHT22;4781;48.776;9.200;2022-08-26T05:52:00;19.00;99.90
9486;DHT22;4781;48.776;9.200;2022-08-26T05:54:29;19.10;99.90
9486;DHT22;4781;48.776;9.200;2022-08-26T05:56:59;19.10;99.90
9486;DHT22;4781;48.776;9.200;2022-08-26T05:59:28;19.10;99.90
9486;DHT22;4781;48.776;9.200;2022-08-26T06:01:56;19.20;99.90
9486;DHT22;4781;48.776;9.200;2022-08-26T06:04:25;19.20;99.90
9486;DHT22;4781;48.776;9.200;2022-08-26T06:06:53;19.20;99.90
9486;DHT22;4781;48.776;9.200;2022-08-26T06:09:22;19.20;99.90
9486;DHT22;4781;48.776;9.200;2022-08-26T06:11:50;19.30;99.90
9486;DHT22;4781;48.776;9.200;2022-08-26T06:14:19;19.30;99.90
9486;DHT22;4781;48.776;9.200;2022-08-26T06:16:48;19.30;99.90
9486;DHT22;4781;48.776;9.200;2022-08-26T06:19:16;19.30;99.90
9486;DHT22;4781;48.776;9.200;2022-08-26T06:21:48;19.30;99.90
9486;DHT22;4781;48.776;9.200;2022-08-26T06:24:17;19.30;99.90
9486;DHT22;4781;48.776;9.200;2022-08-26T06:27:05;19.30;99.90
9486;DHT22;4781;48.776;9.200;2022-08-26T06:29:35;19.30;99.90
9486;DHT22;4781;48.776;9.200;2022-08-26T06:32:04;19.40;99.90
9486;DHT22;4781;48.776;9.200;2022-08-26T06:34:33;19.40;99.90
9486;DHT22;4781;48.776;9.200;2022-08-26T06:37:02;19.50;99.90
9486;DHT22;4781;48.776;9.200;2022-08-26T06:39:31;19.60;99.90
9486;DHT22;4781;48.776;9.200;2022-08-26T06:42:00;19.60;99.90
9486;DHT22;4781;48.776;9.200;2022-08-26T06:44:29;19.70;99.90
9486;DHT22;4781;48.776;9.200;2022-08-26T06:46:57;19.80;99.90
9486;DHT22;4781;48.776;9.200;2022-08-26T06:49:26;19.90;99.90
9486;DHT22;4781;48.776;9.200;2022-08-26T06:51:55;19.90;99.90
9486;DHT22;4781;48.776;9.200;2022-08-26T06:54:23;20.00;99.90
9486;DHT22;4781;48.776;9.200;2022-08-26T06:56:52;20.10;99.90
9486;DHT22;4781;48.776;9.200;2022-08-26T06:59:23;20.20;99.90
9486;DHT22;4781;48.776;9.200;2022-08-26T07:01:52;20.30;99.90
9486;DHT22;4781;48.776;9.200;2022-08-26T07:04:20;20.30;99.90
9486;DHT22;4781;48.776;9.200;2022-08-26T07:06:52;20.40;99.90
9486;DHT22;4781;48.776;9.200;2022-08-26T07:09:23;20.40;99.90
9486;DHT22;4781;48.776;9.200;2022-08-26T07:11:52;20.50;99.90
9486;DHT22;4781;48.776;9.200;2022-08-26T07:14:41;20.50;99.90
9486;DHT22;4781;48.776;9.200;2022-08-26T07:17:09;20.60;99.90
9486;DHT22;4781;48.776;9.200;2022-08-26T07:19:37;20.60;99.90
9486;DHT22;4781;48.776;9.200;2022-08-26T07:22:06;20.70;99.90
9486;DHT22;4781;48.776;9.200;2022-08-26T07:24:36;20.70;99.90
9486;DHT22;4781;48.776;9.200;2022-08-26T07:27:11;20.90;99.90
9486;DHT22;4781;48.776;9.200;2022-08-26T07:29:41;21.00;99.90
9486;DHT22;4781;48.776;9.200;2022-08-26T07:32:12;21.10;99.90
9486;DHT22;4781;48.776;9.200;2022-08-26T07:34:42;21.20;99.90
9486;DHT22;4781;48.776;9.200;2022-08-26T07:37:11;21.20;99.90
9486;DHT22;4781;48.776;9.200;2022-08-26T07:39:40;21.30;99.90
9486;DHT22;4781;48.776;9.200;2022-08-26T07:42:09;21.50;99.90
9486;DHT22;4781;48.776;9.200;2022-08-26T07:44:41;21.70;99.90
9486;DHT22;4781;48.776;9.200;2022-08-26T07:47:11;21.80;99.90
9486;DHT22;4781;48.776;9.200;2022-08-26T07:49:39;21.90;99.90
9486;DHT22;4781;48.776;9.200;2022-08-26T07:52:08;22.00;99.90
9486;DHT22;4781;48.776;9.200;2022-08-26T07:54:36;22.20;99.90
9486;DHT22;4781;48.776;9.200;2022-08-26T07:57:05;22.50;99.90
9486;DHT22;4781;48.776;9.200;2022-08-26T07:59:34;22.80;99.90
9486;DHT22;4781;48.776;9.200;2022-08-26T08:02:02;22.80;99.90
9486;DHT22;4781;48.776;9.200;2022-08-26T08:04:31;23.10;99.90
9486;DHT22;4781;48.776;9.200;2022-08-26T08:07:00;23.20;99.90
9486;DHT22;4781;48.776;9.200;2022-08-26T08:09:28;23.40;99.90
9486;DHT22;4781;48.776;9.200;2022-08-26T08:11:56;23.60;99.90
9486;DHT22;4781;48.776;9.200;2022-08-26T08:14:25;23.80;99.90
9486;DHT22;4781;48.776;9.200;2022-08-26T08:16:53;23.90;99.90
9486;DHT22;4781;48.776;9.200;2022-08-26T08:19:22;24.10;99.90
9486;DHT22;4781;48.776;9.200;2022-08-26T08:21:50;24.30;99.90
9486;DHT22;4781;48.776;9.200;2022-08-26T08:24:19;24.40;99.90
9486;DHT22;4781;48.776;9.200;2022-08-26T08:26:47;24.60;99.90
9486;DHT22;4781;48.776;9.200;2022-08-26T08:29:16;24.90;99.90
9486;DHT22;4781;48.776;9.200;2022-08-26T08:31:45;24.90;99.90
9486;DHT22;4781;48.776;9.200;2022-08-26T08:34:14;25.10;99.90
9486;DHT22;4781;48.776;9.200;2022-08-26T08:36:42;25.00;99.90
9486;DHT22;4781;48.776;9.200;2022-08-26T08:39:13;25.00;99.90
9486;DHT22;4781;48.776;9.200;2022-08-26T08:42:00;25.00;99.90
9486;DHT22;4781;48.776;9.200;2022-08-26T08:44:29;25.10;99.90
9486;DHT22;4781;48.776;9.200;2022-08-26T08:47:05;25.10;99.90
9486;DHT22;4781;48.776;9.200;2022-08-26T08:49:32;25.10;99.90
9486;DHT22;4781;48.776;9.200;2022-08-26T08:52:10;25.20;99.90
9486;DHT22;4781;48.776;9.200;2022-08-26T08:54:40;25.10;99.90
9486;DHT22;4781;48.776;9.200;2022-08-26T08:57:16;25.20;99.90
9486;DHT22;4781;48.776;9.200;2022-08-26T08:59:48;25.30;99.90
9486;DHT22;4781;48.776;9.200;2022-08-26T09:02:50;25.30;99.90
9486;DHT22;4781;48.776;9.200;2022-08-26T09:07:52;25.40;99.90
9486;DHT22;4781;48.776;9.200;2022-08-26T09:10:43;25.40;99.90
9486;DHT22;4781;48.776;9.200;2022-08-26T09:13:09;25.70;99.90
9486;DHT22;4781;48.776;9.200;2022-08-26T09:15:48;25.80;99.90
9486;DHT22;4781;48.776;9.200;2022-08-26T09:24:03;26.00;99.90
9486;DHT22;4781;48.776;9.200;2022-08-26T09:29:26;26.20;99.90
9486;DHT22;4781;48.776;9.200;2022-08-26T09:32:17;26.30;99.90
9486;DHT22;4781;48.776;9.200;2022-08-26T09:37:53;26.30;99.90
9486;DHT22;4781;48.776;9.200;2022-08-26T09:43:09;26.30;99.90
9486;DHT22;4781;48.776;9.200;2022-08-26T09:45:45;26.40;99.90
9486;DHT22;4781;48.776;9.200;2022-08-26T09:48:25;26.40;99.90
9486;DHT22;4781;48.776;9.200;2022-08-26T09:51:03;26.50;99.90
9486;DHT22;4781;48.776;9.200;2022-08-26T09:53:46;26.70;99.90
9486;DHT22;4781;48.776;9.200;2022-08-26T09:56:28;27.10;99.90
9486;DHT22;4781;48.776;9.200;2022-08-26T09:58:51;27.50;99.90
9486;DHT22;4781;48.776;9.200;2022-08-26T10:01:29;27.80;99.90
9486;DHT22;4781;48.776;9.200;2022-08-26T10:04:09;28.00;99.90
9486;DHT22;4781;48.776;9.200;2022-08-26T10:06:42;28.20;99.90
9486;DHT22;4781;48.776;9.200;2022-08-26T10:09:14;28.60;99.90
9486;DHT22;4781;48.776;9.200;2022-08-26T10:11:50;28.70;99.90
9486;DHT22;4781;48.776;9.200;2022-08-26T10:14:32;29.00;99.90
9486;DHT22;4781;48.776;9.200;2022-08-26T10:17:38;29.10;99.20
9486;DHT22;4781;48.776;9.200;2022-08-26T10:23:02;29.40;99.90
9486;DHT22;4781;48.776;9.200;2022-08-26T10:25:39;29.70;99.40
9486;DHT22;4781;48.776;9.200;2022-08-26T10:28:47;30.10;99.20
9486;DHT22;4781;48.776;9.200;2022-08-26T10:31:40;30.20;97.50
9486;DHT22;4781;48.776;9.200;2022-08-26T10:34:18;30.40;96.90
9486;DHT22;4781;48.776;9.200;2022-08-26T10:39:52;30.60;96.40
9486;DHT22;4781;48.776;9.200;2022-08-26T10:45:36;30.40;95.10
9486;DHT22;4781;48.776;9.200;2022-08-26T10:48:06;30.20;95.30
9486;DHT22;4781;48.776;9.200;2022-08-26T10:50:39;29.90;95.30
9486;DHT22;4781;48.776;9.200;2022-08-26T10:53:30;30.20;95.30
9486;DHT22;4781;48.776;9.200;2022-08-26T11:05:02;29.60;94.60
9486;DHT22;4781;48.776;9.200;2022-08-26T11:07:44;29.60;94.00
9486;DHT22;4781;48.776;9.200;2022-08-26T11:12:59;30.70;92.70
9486;DHT22;4781;48.776;9.200;2022-08-26T11:18:34;31.30;90.50
9486;DHT22;4781;48.776;9.200;2022-08-26T11:21:00;31.40;87.60
9486;DHT22;4781;48.776;9.200;2022-08-26T11:23:36;31.30;86.80
9486;DHT22;4781;48.776;9.200;2022-08-26T11:26:14;31.60;87.10
9486;DHT22;4781;48.776;9.200;2022-08-26T11:28:46;32.20;88.60
9486;DHT22;4781;48.776;9.200;2022-08-26T11:34:00;32.60;90.40
9486;DHT22;4781;48.776;9.200;2022-08-26T11:39:22;33.20;90.50
9486;DHT22;4781;48.776;9.200;2022-08-26T11:41:57;32.80;87.80
9486;DHT22;4781;48.776;9.200;2022-08-26T11:44:35;32.00;88.50
9486;DHT22;4781;48.776;9.200;2022-08-26T11:47:02;31.50;89.40
9486;DHT22;4781;48.776;9.200;2022-08-26T11:49:33;31.50;90.00
9486;DHT22;4781;48.776;9.200;2022-08-26T11:52:18;31.50;90.50
9486;DHT22;4781;48.776;9.200;2022-08-26T11:55:05;31.30;90.20
9486;DHT22;4781;48.776;9.200;2022-08-26T11:57:43;31.20;90.60
9486;DHT22;4781;48.776;9.200;2022-08-26T12:00:25;31.80;90.80
9486;DHT22;4781;48.776;9.200;2022-08-26T12:03:01;32.30;90.10
9486;DHT22;4781;48.776;9.200;2022-08-26T12:05:40;32.60;89.60
9486;DHT22;4781;48.776;9.200;2022-08-26T12:08:12;32.70;88.00
9486;DHT22;4781;48.776;9.200;2022-08-26T12:10:41;32.80;86.50
9486;DHT22;4781;48.776;9.200;2022-08-26T12:13:22;32.80;86.10
9486;DHT22;4781;48.776;9.200;2022-08-26T12:15:56;32.20;86.40
9486;DHT22;4781;48.776;9.200;2022-08-26T12:18:29;32.20;87.80
9486;DHT22;4781;48.776;9.200;2022-08-26T12:21:08;31.90;86.00
9486;DHT22;4781;48.776;9.200;2022-08-26T12:23:44;32.00;87.00
9486;DHT22;4781;48.776;9.200;2022-08-26T12:26:27;32.50;87.40
9486;DHT22;4781;48.776;9.200;2022-08-26T12:28:58;32.80;86.40
9486;DHT22;4781;48.776;9.200;2022-08-26T12:31:42;33.00;84.90
9486;DHT22;4781;48.776;9.200;2022-08-26T12:34:13;33.10;85.80
9486;DHT22;4781;48.776;9.200;2022-08-26T12:36:46;33.20;85.70
9486;DHT22;4781;48.776;9.200;2022-08-26T12:39:27;33.20;86.30
9486;DHT22;4781;48.776;9.200;2022-08-26T12:44:58;33.20;88.30
9486;DHT22;4781;48.776;9.200;2022-08-26T12:47:35;33.60;85.60
9486;DHT22;4781;48.776;9.200;2022-08-26T12:50:19;32.80;85.10
9486;DHT22;4781;48.776;9.200;2022-08-26T12:55:51;32.20;87.50
9486;DHT22;4781;48.776;9.200;2022-08-26T12:58:29;31.90;85.10
9486;DHT22;4781;48.776;9.200;2022-08-26T13:03:43;32.20;84.70
9486;DHT22;4781;48.776;9.200;2022-08-26T13:11:32;32.00;83.80
9486;DHT22;4781;48.776;9.200;2022-08-26T13:14:05;32.10;84.40
9486;DHT22;4781;48.776;9.200;2022-08-26T13:16:38;32.20;83.60
9486;DHT22;4781;48.776;9.200;2022-08-26T13:19:11;32.00;83.70
9486;DHT22;4781;48.776;9.200;2022-08-26T13:21:44;32.00;84.80
9486;DHT22;4781;48.776;9.200;2022-08-26T13:24:20;31.90;84.80
9486;DHT22;4781;48.776;9.200;2022-08-26T13:26:51;31.70;83.70
9486;DHT22;4781;48.776;9.200;2022-08-26T13:29:19;31.50;85.80
9486;DHT22;4781;48.776;9.200;2022-08-26T13:31:48;31.70;85.00
9486;DHT22;4781;48.776;9.200;2022-08-26T13:34:19;31.90;83.00
9486;DHT22;4781;48.776;9.200;2022-08-26T13:36:50;31.70;83.40
9486;DHT22;4781;48.776;9.200;2022-08-26T13:39:21;31.50;85.10
9486;DHT22;4781;48.776;9.200;2022-08-26T13:41:50;31.40;85.50
9486;DHT22;4781;48.776;9.200;2022-08-26T13:44:19;31.20;84.60
9486;DHT22;4781;48.776;9.200;2022-08-26T13:46:48;31.00;84.20
9486;DHT22;4781;48.776;9.200;2022-08-26T13:49:16;30.90;83.60
9486;DHT22;4781;48.776;9.200;2022-08-26T13:51:45;30.70;82.70
9486;DHT22;4781;48.776;9.200;2022-08-26T13:54:13;30.50;84.10
9486;DHT22;4781;48.776;9.200;2022-08-26T13:56:41;30.40;81.80
9486;DHT22;4781;48.776;9.200;2022-08-26T13:59:10;30.20;83.50
9486;DHT22;4781;48.776;9.200;2022-08-26T14:01:39;30.10;81.30
9486;DHT22;4781;48.776;9.200;2022-08-26T14:04:07;30.00;80.10
9486;DHT22;4781;48.776;9.200;2022-08-26T14:06:35;29.90;79.60
9486;DHT22;4781;48.776;9.200;2022-08-26T14:09:04;29.70;80.50
9486;DHT22;4781;48.776;9.200;2022-08-26T14:11:32;29.60;81.40
9486;DHT22;4781;48.776;9.200;2022-08-26T14:14:01;29.40;82.50
9486;DHT22;4781;48.776;9.200;2022-08-26T14:16:32;29.30;82.60
9486;DHT22;4781;48.776;9.200;2022-08-26T14:19:04;29.20;83.00
9486;DHT22;4781;48.776;9.200;2022-08-26T14:21:36;29.10;83.20
9486;DHT22;4781;48.776;9.200;2022-08-26T14:24:05;29.10;84.10
9486;DHT22;4781;48.776;9.200;2022-08-26T14:26:34;29.00;84.20
9486;DHT22;4781;48.776;9.200;2022-08-26T14:29:02;29.00;84.50
9486;DHT22;4781;48.776;9.200;2022-08-26T14:31:32;28.80;85.70
9486;DHT22;4781;48.776;9.200;2022-08-26T14:34:05;28.70;86.20
9486;DHT22;4781;48.776;9.200;2022-08-26T14:36:35;28.60;86.70
9486;DHT22;4781;48.776;9.200;2022-08-26T14:39:08;28.60;87.30
9486;DHT22;4781;48.776;9.200;2022-08-26T14:41:43;28.50;87.80
9486;DHT22;4781;48.776;9.200;2022-08-26T14:44:14;28.50;88.60
9486;DHT22;4781;48.776;9.200;2022-08-26T14:46:46;28.40;88.00
9486;DHT22;4781;48.776;9.200;2022-08-26T14:49:16;28.40;87.90
9486;DHT22;4781;48.776;9.200;2022-08-26T14:51:45;28.30;87.90
9486;DHT22;4781;48.776;9.200;2022-08-26T14:54:15;28.30;88.60
9486;DHT22;4781;48.776;9.200;2022-08-26T14:56:47;28.20;88.60
9486;DHT22;4781;48.776;9.200;2022-08-26T14:59:25;28.20;88.60
9486;DHT22;4781;48.776;9.200;2022-08-26T15:01:51;28.10;89.50
9486;DHT22;4781;48.776;9.200;2022-08-26T15:04:20;28.10;89.70
9486;DHT22;4781;48.776;9.200;2022-08-26T15:06:50;28.10;90.10
9486;DHT22;4781;48.776;9.200;2022-08-26T15:09:22;28.00;90.50
9486;DHT22;4781;48.776;9.200;2022-08-26T15:11:53;28.00;89.20
9486;DHT22;4781;48.776;9.200;2022-08-26T15:14:22;27.90;89.30
9486;DHT22;4781;48.776;9.200;2022-08-26T15:16:54;27.90;89.00
9486;DHT22;4781;48.776;9.200;2022-08-26T15:19:24;27.90;89.40
9486;DHT22;4781;48.776;9.200;2022-08-26T15:21:53;27.80;90.10
9486;DHT22;4781;48.776;9.200;2022-08-26T15:24:22;27.80;89.80
9486;DHT22;4781;48.776;9.200;2022-08-26T15:26:52;27.80;90.70
9486;DHT22;4781;48.776;9.200;2022-08-26T15:29:21;27.70;90.40
9486;DHT22;4781;48.776;9.200;2022-08-26T15:31:50;27.70;90.70
9486;DHT22;4781;48.776;9.200;2022-08-26T15:34:19;27.70;90.50
9486;DHT22;4781;48.776;9.200;2022-08-26T15:36:47;27.60;91.60
9486;DHT22;4781;48.776;9.200;2022-08-26T15:39:16;27.40;92.30
9486;DHT22;4781;48.776;9.200;2022-08-26T15:41:45;27.20;92.90
9486;DHT22;4781;48.776;9.200;2022-08-26T15:44:15;27.00;93.40
9486;DHT22;4781;48.776;9.200;2022-08-26T15:46:45;26.80;93.50
9486;DHT22;4781;48.776;9.200;2022-08-26T15:49:14;26.70;93.70
9486;DHT22;4781;48.776;9.200;2022-08-26T15:51:43;26.70;94.00
9486;DHT22;4781;48.776;9.200;2022-08-26T15:54:15;26.40;93.90
9486;DHT22;4781;48.776;9.200;2022-08-26T15:56:46;26.00;94.60
9486;DHT22;4781;48.776;9.200;2022-08-26T15:59:16;25.80;94.60
9486;DHT22;4781;48.776;9.200;2022-08-26T16:01:46;25.70;94.90
9486;DHT22;4781;48.776;9.200;2022-08-26T16:04:14;25.50;95.60
9486;DHT22;4781;48.776;9.200;2022-08-26T16:06:46;25.10;96.00
9486;DHT22;4781;48.776;9.200;2022-08-26T16:09:15;23.90;99.90
9486;DHT22;4781;48.776;9.200;2022-08-26T16:11:44;22.90;99.90
9486;DHT22;4781;48.776;9.200;2022-08-26T16:14:12;22.10;99.90
9486;DHT22;4781;48.776;9.200;2022-08-26T16:16:42;21.60;99.90
9486;DHT22;4781;48.776;9.200;2022-08-26T16:19:10;21.10;99.90
9486;DHT22;4781;48.776;9.200;2022-08-26T16:21:39;20.70;99.90
9486;DHT22;4781;48.776;9.200;2022-08-26T16:24:08;20.40;99.90
9486;DHT22;4781;48.776;9.200;2022-08-26T16:26:39;20.10;99.90
9486;DHT22;4781;48.776;9.200;2022-08-26T16:29:12;20.00;99.90
9486;DHT22;4781;48.776;9.200;2022-08-26T16:31:41;19.90;99.90
9486;DHT22;4781;48.776;9.200;2022-08-26T16:34:10;19.80;99.90
9486;DHT22;4781;48.776;9.200;2022-08-26T16:36:38;19.60;99.90
9486;DHT22;4781;48.776;9.200;2022-08-26T16:39:08;19.60;99.90
9486;DHT22;4781;48.776;9.200;2022-08-26T16:41:36;19.60;99.90
9486;DHT22;4781;48.776;9.200;2022-08-26T16:44:06;19.60;99.90
9486;DHT22;4781;48.776;9.200;2022-08-26T16:46:36;19.50;99.90
9486;DHT22;4781;48.776;9.200;2022-08-26T16:49:05;19.50;99.90
9486;DHT22;4781;48.776;9.200;2022-08-26T16:51:34;19.50;99.90
9486;DHT22;4781;48.776;9.200;2022-08-26T16:54:03;19.50;99.90
9486;DHT22;4781;48.776;9.200;2022-08-26T16:56:31;19.40;99.90
9486;DHT22;4781;48.776;9.200;2022-08-26T16:59:01;19.30;99.90
9486;DHT22;4781;48.776;9.200;2022-08-26T17:01:30;19.30;99.90
9486;DHT22;4781;48.776;9.200;2022-08-26T17:03:59;19.20;99.90
9486;DHT22;4781;48.776;9.200;2022-08-26T17:06:27;19.10;99.90
9486;DHT22;4781;48.776;9.200;2022-08-26T17:08:56;19.00;99.90
9486;DHT22;4781;48.776;9.200;2022-08-26T17:11:24;19.00;99.90
9486;DHT22;4781;48.776;9.200;2022-08-26T17:13:53;19.00;99.90
9486;DHT22;4781;48.776;9.200;2022-08-26T17:16:22;18.90;99.90
9486;DHT22;4781;48.776;9.200;2022-08-26T17:18:50;18.80;99.90
9486;DHT22;4781;48.776;9.200;2022-08-26T17:21:22;18.80;99.90
9486;DHT22;4781;48.776;9.200;2022-08-26T17:23:50;18.80;99.90
9486;DHT22;4781;48.776;9.200;2022-08-26T17:26:19;18.70;99.90
9486;DHT22;4781;48.776;9.200;2022-08-26T17:28:48;18.70;99.90